createdAt,value
2018-07-15T00:01:41.077Z,3.50
2018-07-15T00:04:09.340Z,3.90
2018-07-15T00:06:37.733Z,3.37
2018-07-15T00:09:07.001Z,4.50
2018-07-15T00:11:35.321Z,3.60
2018-07-15T00:14:03.640Z,3.80
2018-07-15T00:16:31.928Z,3.83
2018-07-15T00:19:00.309Z,4.33
2018-07-15T00:21:28.621Z,4.17
2018-07-15T00:23:56.894Z,3.63
2018-07-15T00:26:25.138Z,3.60
2018-07-15T00:28:53.417Z,3.60
2018-07-15T00:31:22.126Z,3.67
2018-07-15T00:33:50.516Z,3.70
2018-07-15T00:36:18.838Z,4.17
2018-07-15T00:38:47.093Z,3.80
2018-07-15T00:41:15.148Z,3.17
2018-07-15T00:43:43.465Z,3.83
2018-07-15T00:46:11.738Z,3.83
2018-07-15T00:48:40.000Z,3.53
2018-07-15T00:51:08.269Z,3.60
2018-07-15T00:53:36.557Z,4.13
2018-07-15T00:56:04.820Z,3.77
2018-07-15T00:58:33.096Z,3.57
2018-07-15T01:01:02.033Z,3.90
2018-07-15T01:03:31.153Z,4.27
2018-07-15T01:05:59.505Z,3.50
2018-07-15T01:08:27.816Z,4.00
2018-07-15T01:10:56.133Z,3.93
2018-07-15T01:13:24.676Z,4.00
2018-07-15T01:15:52.957Z,3.27
2018-07-15T01:18:21.235Z,3.67
2018-07-15T01:20:49.612Z,3.67
2018-07-15T01:23:17.877Z,3.87
2018-07-15T01:25:46.134Z,3.30
2018-07-15T01:28:14.556Z,3.53
2018-07-15T01:30:42.813Z,3.27
2018-07-15T01:33:12.025Z,3.70
2018-07-15T01:35:40.317Z,4.00
2018-07-15T01:38:08.612Z,3.17
2018-07-15T01:40:36.928Z,3.70
2018-07-15T01:43:05.480Z,4.20
2018-07-15T01:45:33.726Z,3.53
2018-07-15T01:48:01.992Z,4.00
2018-07-15T01:50:30.278Z,3.73
2018-07-15T01:52:58.541Z,3.70
2018-07-15T01:55:26.821Z,4.00
2018-07-15T01:57:55.394Z,4.00
2018-07-15T02:00:23.704Z,3.80
2018-07-15T02:02:51.983Z,3.97
2018-07-15T02:05:20.464Z,4.20
2018-07-15T02:07:48.720Z,4.20
2018-07-15T02:10:16.960Z,4.00
2018-07-15T02:12:45.404Z,4.13
2018-07-15T02:15:13.708Z,4.53
2018-07-15T02:17:41.967Z,4.50
2018-07-15T02:20:10.404Z,4.10
2018-07-15T02:22:38.684Z,4.67
2018-07-15T02:25:07.218Z,4.73
2018-07-15T02:27:35.677Z,4.27
2018-07-15T02:30:04.006Z,4.10
2018-07-15T02:32:32.273Z,4.50
2018-07-15T02:35:01.377Z,4.13
2018-07-15T02:37:29.650Z,4.30
2018-07-15T02:39:57.908Z,4.47
2018-07-15T02:42:26.229Z,4.37
2018-07-15T02:44:54.541Z,4.63
2018-07-15T02:47:22.790Z,4.30
2018-07-15T02:49:51.116Z,3.90
2018-07-15T02:52:19.396Z,4.33
2018-07-15T02:54:47.670Z,4.70
2018-07-15T02:57:15.953Z,4.40
2018-07-15T02:59:44.224Z,4.57
2018-07-15T03:02:12.477Z,4.13
2018-07-15T03:04:40.863Z,4.07
2018-07-15T03:07:09.143Z,4.60
2018-07-15T03:09:37.411Z,3.90
2018-07-15T03:12:05.707Z,4.30
2018-07-15T03:14:33.990Z,4.30
2018-07-15T03:17:02.287Z,3.93
2018-07-15T03:19:30.585Z,4.43
2018-07-15T03:21:58.861Z,4.60
2018-07-15T03:24:27.112Z,4.47
2018-07-15T03:26:55.466Z,5.07
2018-07-15T03:29:23.712Z,4.70
2018-07-15T03:31:51.996Z,4.80
2018-07-15T03:34:20.458Z,5.23
2018-07-15T03:36:48.790Z,5.50
2018-07-15T03:39:17.112Z,4.63
2018-07-15T03:41:45.845Z,4.67
2018-07-15T03:44:14.120Z,4.50
2018-07-15T03:46:42.380Z,4.70
2018-07-15T03:49:10.658Z,4.20
2018-07-15T03:51:38.937Z,4.87
2018-07-15T03:54:07.196Z,5.07
2018-07-15T03:56:35.625Z,4.87
2018-07-15T03:59:03.864Z,4.80
2018-07-15T04:01:32.177Z,5.07
2018-07-15T04:04:00.463Z,5.40
2018-07-15T04:06:28.725Z,4.97
2018-07-15T04:08:57.106Z,5.40
2018-07-15T04:11:25.356Z,5.70
2018-07-15T04:13:53.628Z,5.90
2018-07-15T04:16:21.900Z,5.60
2018-07-15T04:18:50.469Z,5.77
2018-07-15T04:21:18.736Z,5.30
2018-07-15T04:23:47.018Z,5.83
2018-07-15T04:26:15.321Z,5.80
2018-07-15T04:28:43.589Z,5.73
2018-07-15T04:31:11.884Z,6.60
2018-07-15T04:33:40.331Z,4.90
2018-07-15T04:36:08.592Z,5.90
2018-07-15T04:38:36.941Z,5.73
2018-07-15T04:41:05.238Z,5.70
2018-07-15T04:43:33.518Z,5.27
2018-07-15T04:46:01.817Z,5.50
2018-07-15T04:48:30.129Z,5.70
2018-07-15T04:50:58.384Z,5.63
2018-07-15T04:53:26.629Z,5.93
2018-07-15T04:55:54.909Z,5.60
2018-07-15T04:58:23.188Z,5.73
2018-07-15T05:00:51.468Z,5.97
2018-07-15T05:03:19.812Z,5.63
2018-07-15T05:05:48.070Z,6.03
2018-07-15T05:08:16.080Z,5.73
2018-07-15T05:10:44.389Z,6.07
2018-07-15T05:13:12.658Z,5.60
2018-07-15T05:15:40.929Z,5.87
2018-07-15T05:18:09.570Z,5.80
2018-07-15T05:20:37.949Z,6.00
2018-07-15T05:23:06.226Z,5.90
2018-07-15T05:25:34.528Z,5.20
2018-07-15T05:28:02.800Z,6.30
2018-07-15T05:30:31.188Z,6.00
2018-07-15T05:33:00.913Z,5.93
2018-07-15T05:35:29.197Z,6.33
2018-07-15T05:37:57.472Z,5.57
2018-07-15T05:40:26.077Z,5.97
2018-07-15T05:42:54.342Z,6.47
2018-07-15T05:45:22.614Z,5.87
2018-07-15T05:47:50.950Z,5.90
2018-07-15T05:50:19.268Z,6.07
2018-07-15T05:52:47.531Z,5.77
2018-07-15T05:55:16.004Z,5.93
2018-07-15T05:57:44.277Z,6.20
2018-07-15T06:00:12.530Z,5.77
2018-07-15T06:02:40.836Z,5.97
2018-07-15T06:07:38.152Z,5.73
2018-07-15T06:10:06.760Z,5.60
2018-07-15T06:12:35.124Z,5.20
2018-07-15T06:15:03.403Z,5.60
2018-07-15T06:17:31.953Z,5.53
2018-07-15T06:20:00.229Z,4.97
2018-07-15T06:22:28.507Z,5.03
2018-07-15T06:24:56.808Z,5.13
2018-07-15T06:27:25.083Z,5.83
2018-07-15T06:29:53.363Z,5.37
2018-07-15T06:32:21.697Z,5.57
2018-07-15T06:34:49.969Z,5.73
2018-07-15T06:37:18.259Z,5.50
2018-07-15T06:39:46.701Z,5.80
2018-07-15T06:42:15.568Z,5.43
2018-07-15T06:44:43.850Z,5.57
2018-07-15T06:47:11.988Z,5.00
2018-07-15T06:49:40.361Z,6.00
2018-07-15T06:52:08.671Z,5.23
2018-07-15T06:54:37.016Z,5.63
2018-07-15T06:57:05.654Z,5.67
2018-07-15T06:59:33.952Z,5.80
2018-07-15T07:02:02.225Z,6.00
2018-07-15T07:04:30.505Z,5.77
2018-07-15T07:06:58.740Z,5.33
2018-07-15T07:09:27.308Z,5.27
2018-07-15T07:11:55.545Z,5.40
2018-07-15T07:14:23.792Z,5.53
2018-07-15T07:16:52.385Z,5.63
2018-07-15T07:19:20.650Z,5.97
2018-07-15T07:21:48.888Z,5.67
2018-07-15T07:24:17.197Z,5.70
2018-07-15T07:26:45.513Z,4.80
2018-07-15T07:29:13.745Z,6.30
2018-07-15T07:31:42.070Z,6.00
2018-07-15T07:34:10.354Z,5.57
2018-07-15T07:36:38.713Z,6.00
2018-07-15T07:39:07.628Z,5.30
2018-07-15T07:41:36.132Z,5.77
2018-07-15T07:44:05.214Z,5.30
2018-07-15T07:46:33.565Z,5.03
2018-07-15T07:49:01.852Z,5.47
2018-07-15T07:51:30.146Z,4.67
2018-07-15T07:53:58.728Z,4.97
2018-07-15T07:56:27.008Z,4.53
2018-07-15T07:58:55.253Z,4.20
2018-07-15T08:01:23.701Z,4.20
2018-07-15T08:03:51.961Z,4.23
2018-07-15T08:06:20.216Z,4.27
2018-07-15T08:08:48.485Z,4.00
2018-07-15T08:11:16.736Z,3.77
2018-07-15T08:13:45.005Z,3.67
2018-07-15T08:16:13.456Z,3.37
2018-07-15T08:18:41.726Z,3.43
2018-07-15T08:21:10.069Z,4.10
2018-07-15T08:23:38.658Z,3.90
2018-07-15T08:26:07.090Z,3.87
2018-07-15T08:28:35.173Z,3.60
2018-07-15T08:31:11.752Z,3.83
2018-07-15T08:33:40.273Z,3.33
2018-07-15T08:36:09.313Z,3.63
2018-07-15T08:38:38.218Z,3.27
2018-07-15T08:41:06.645Z,3.23
2018-07-15T08:43:34.925Z,3.73
2018-07-15T08:46:04.563Z,3.70
2018-07-15T08:48:33.120Z,3.17
2018-07-15T08:51:01.434Z,3.40
2018-07-15T08:53:29.737Z,3.80
2018-07-15T08:55:58.049Z,3.20
2018-07-15T08:58:26.305Z,3.10
2018-07-15T09:00:54.682Z,3.43
2018-07-15T09:03:22.978Z,2.80
2018-07-15T09:05:51.226Z,3.40
2018-07-15T09:08:19.907Z,2.70
2018-07-15T09:10:48.172Z,2.87
2018-07-15T09:13:16.432Z,2.70
2018-07-15T09:15:44.477Z,2.97
2018-07-15T09:18:12.781Z,3.00
2018-07-15T09:20:41.114Z,2.80
2018-07-15T09:23:09.393Z,5.10
2018-07-15T09:25:37.641Z,3.40
2018-07-15T09:28:06.126Z,2.77
2018-07-15T09:30:34.405Z,2.70
2018-07-15T09:33:02.657Z,2.50
2018-07-15T09:35:30.945Z,2.80
2018-07-15T09:37:58.936Z,2.47
2018-07-15T09:40:27.237Z,2.57
2018-07-15T09:42:55.528Z,2.20
2018-07-15T09:45:23.826Z,2.70
2018-07-15T09:47:52.160Z,2.90
2018-07-15T09:50:20.405Z,2.17
2018-07-15T09:52:48.941Z,2.53
2018-07-15T09:55:17.181Z,2.27
2018-07-15T09:57:45.424Z,2.70
2018-07-15T10:00:19.129Z,2.70
2018-07-15T10:02:47.376Z,2.50
2018-07-15T10:05:15.628Z,2.70
2018-07-15T10:07:43.893Z,2.33
2018-07-15T10:10:12.149Z,2.77
2018-07-15T10:12:40.444Z,2.50
2018-07-15T10:15:09.224Z,2.77
2018-07-15T10:17:37.703Z,2.80
2018-07-15T10:20:06.279Z,3.27
2018-07-15T10:22:34.681Z,2.67
2018-07-15T10:25:02.977Z,2.60
2018-07-15T10:27:31.233Z,2.90
2018-07-15T10:29:59.521Z,2.80
2018-07-15T10:32:27.886Z,2.63
2018-07-15T10:34:56.377Z,2.70
2018-07-15T10:37:24.680Z,2.47
2018-07-15T10:39:52.951Z,2.30
2018-07-15T10:42:21.233Z,3.30
2018-07-15T10:44:49.509Z,3.20
2018-07-15T10:47:17.789Z,3.90
2018-07-15T10:49:46.212Z,3.00
2018-07-15T10:52:14.501Z,2.50
2018-07-15T10:54:42.819Z,2.60
2018-07-15T10:57:11.097Z,2.43
2018-07-15T10:59:39.421Z,2.70
2018-07-15T11:02:07.720Z,2.70
2018-07-15T11:04:35.988Z,2.60
2018-07-15T11:07:04.274Z,2.47
2018-07-15T11:09:32.522Z,2.33
2018-07-15T11:12:00.765Z,2.63
2018-07-15T11:14:29.126Z,2.60
2018-07-15T11:16:57.365Z,2.67
2018-07-15T11:19:25.622Z,2.23
2018-07-15T11:21:53.824Z,2.70
2018-07-15T11:24:22.070Z,2.40
2018-07-15T11:26:50.353Z,2.47
2018-07-15T11:29:18.829Z,2.97
2018-07-15T11:31:47.160Z,2.30
2018-07-15T11:34:15.430Z,2.40
2018-07-15T11:36:43.781Z,2.30
2018-07-15T11:39:12.045Z,2.20
2018-07-15T11:41:40.340Z,2.27
2018-07-15T11:44:09.024Z,2.50
2018-07-15T11:46:37.294Z,2.10
2018-07-15T11:49:05.575Z,3.30
2018-07-15T11:51:34.245Z,2.30
2018-07-15T11:54:02.541Z,2.13
2018-07-15T11:56:30.845Z,2.23
2018-07-15T11:58:59.140Z,2.00
2018-07-15T12:01:27.406Z,1.80
2018-07-15T12:03:55.665Z,2.67
2018-07-15T12:06:24.000Z,2.07
2018-07-15T12:08:52.270Z,1.87
2018-07-15T12:11:20.279Z,2.00
2018-07-15T12:13:48.673Z,1.80
2018-07-15T12:16:17.005Z,2.10
2018-07-15T12:18:45.317Z,1.90
2018-07-15T12:21:13.608Z,2.00
2018-07-15T12:23:41.937Z,2.10
2018-07-15T12:26:09.980Z,1.90
2018-07-15T12:28:38.499Z,2.03
2018-07-15T12:31:06.829Z,1.77
2018-07-15T12:33:35.077Z,2.10
2018-07-15T12:36:03.781Z,2.13
2018-07-15T12:38:32.041Z,1.90
2018-07-15T12:41:00.289Z,1.97
2018-07-15T12:43:28.424Z,2.30
2018-07-15T12:45:56.656Z,2.40
2018-07-15T12:48:24.913Z,1.80
2018-07-15T12:50:53.524Z,1.83
2018-07-15T12:53:22.329Z,1.53
2018-07-15T12:55:50.625Z,1.80
2018-07-15T12:58:19.250Z,1.90
2018-07-15T13:00:47.508Z,1.97
2018-07-15T13:03:15.809Z,2.10
2018-07-15T13:05:44.264Z,1.80
2018-07-15T13:08:13.563Z,2.10
2018-07-15T13:10:41.897Z,2.00
2018-07-15T13:13:10.685Z,2.17
2018-07-15T13:15:39.833Z,2.00
2018-07-15T13:18:08.107Z,2.00
2018-07-15T13:20:36.438Z,2.00
2018-07-15T13:23:04.694Z,2.00
2018-07-15T13:25:32.964Z,2.20
2018-07-15T13:28:01.685Z,2.10
2018-07-15T13:30:29.954Z,2.10
2018-07-15T13:32:58.298Z,2.20
2018-07-15T13:35:26.780Z,1.80
2018-07-15T13:37:55.097Z,1.80
2018-07-15T13:40:23.453Z,1.80
2018-07-15T13:42:52.185Z,1.97
2018-07-15T13:45:20.681Z,1.90
2018-07-15T13:47:48.945Z,2.20
2018-07-15T13:50:17.600Z,2.03
2018-07-15T13:52:46.089Z,2.00
2018-07-15T13:55:14.769Z,1.80
2018-07-15T13:57:43.044Z,1.80
2018-07-15T14:00:11.385Z,1.80
2018-07-15T14:02:39.647Z,2.30
2018-07-15T14:05:08.480Z,2.00
2018-07-15T14:07:36.753Z,1.80
2018-07-15T14:10:05.777Z,1.63
2018-07-15T14:12:34.229Z,1.70
2018-07-15T14:15:02.586Z,2.00
2018-07-15T14:17:30.869Z,1.60
2018-07-15T14:19:59.673Z,1.80
2018-07-15T14:22:28.017Z,2.90
2018-07-15T14:24:56.469Z,2.37
2018-07-15T14:27:25.010Z,2.00
2018-07-15T14:29:53.059Z,2.00
2018-07-15T14:32:21.397Z,1.77
2018-07-15T14:34:49.700Z,1.93
2018-07-15T14:37:18.019Z,1.70
2018-07-15T14:39:46.306Z,1.77
2018-07-15T14:42:14.649Z,1.70
2018-07-15T14:44:43.005Z,1.80
2018-07-15T14:47:11.276Z,2.03
2018-07-15T14:49:39.933Z,1.47
2018-07-15T14:52:08.273Z,1.87
2018-07-15T14:54:36.598Z,1.70
2018-07-15T14:57:05.313Z,1.40
2018-07-15T14:59:33.583Z,3.27
2018-07-15T15:02:01.906Z,2.30
2018-07-15T15:04:30.337Z,1.80
2018-07-15T15:06:58.683Z,1.60
2018-07-15T15:09:26.961Z,2.10
2018-07-15T15:11:55.336Z,1.70
2018-07-15T15:14:23.689Z,1.60
2018-07-15T15:16:52.057Z,1.93
2018-07-15T15:19:20.477Z,1.60
2018-07-15T15:21:48.795Z,1.90
2018-07-15T15:24:17.105Z,2.00
2018-07-15T15:26:45.670Z,1.47
2018-07-15T15:29:14.049Z,1.80
2018-07-15T15:31:42.326Z,1.90
2018-07-15T15:34:10.997Z,1.90
2018-07-15T15:36:39.264Z,1.90
2018-07-15T15:39:07.592Z,1.77
2018-07-15T15:41:36.041Z,1.60
2018-07-15T15:44:04.304Z,1.80
2018-07-15T15:46:32.565Z,1.83
2018-07-15T15:49:01.376Z,1.93
2018-07-15T15:51:29.731Z,1.90
2018-07-15T15:53:58.066Z,6.17
2018-07-15T15:56:26.677Z,2.20
2018-07-15T15:58:55.714Z,2.03
2018-07-15T16:01:23.997Z,2.20
2018-07-15T16:03:52.285Z,2.00
2018-07-15T16:06:20.599Z,1.60
2018-07-15T16:08:48.960Z,4.13
2018-07-15T16:11:17.453Z,2.40
2018-07-15T16:13:45.789Z,1.70
2018-07-15T16:16:14.373Z,1.90
2018-07-15T16:18:42.721Z,2.13
2018-07-15T16:21:10.982Z,1.80
2018-07-15T16:23:39.242Z,1.83
2018-07-15T16:26:07.648Z,1.80
2018-07-15T16:28:35.976Z,1.90
2018-07-15T16:31:04.224Z,1.90
2018-07-15T16:33:32.521Z,2.03
2018-07-15T16:36:00.792Z,2.13
2018-07-15T16:38:29.088Z,2.20
2018-07-15T16:40:57.937Z,1.97
2018-07-15T16:43:26.204Z,5.90
2018-07-15T16:45:54.517Z,2.50
2018-07-15T16:48:23.058Z,1.97
2018-07-15T16:50:51.369Z,2.07
2018-07-15T16:53:19.672Z,2.20
2018-07-15T16:55:48.542Z,1.93
2018-07-15T16:58:17.187Z,2.30
2018-07-15T17:00:45.788Z,2.33
2018-07-15T17:03:14.172Z,2.10
2018-07-15T17:05:42.590Z,1.80
2018-07-15T17:08:10.836Z,1.83
2018-07-15T17:10:39.217Z,2.10
2018-07-15T17:13:07.758Z,2.27
2018-07-15T17:15:36.029Z,2.00
2018-07-15T17:18:04.313Z,2.67
2018-07-15T17:20:32.556Z,2.30
2018-07-15T17:23:00.813Z,2.00
2018-07-15T17:25:28.848Z,1.77
2018-07-15T17:27:57.128Z,2.03
2018-07-15T17:30:25.377Z,2.07
2018-07-15T17:32:53.644Z,2.47
2018-07-15T17:35:21.668Z,1.83
2018-07-15T17:37:49.908Z,2.10
2018-07-15T17:40:18.184Z,1.80
2018-07-15T17:42:46.427Z,1.60
2018-07-15T17:45:14.725Z,2.30
2018-07-15T17:47:43.011Z,1.60
2018-07-15T17:50:11.305Z,2.20
2018-07-15T17:52:39.582Z,1.93
2018-07-15T17:55:07.853Z,1.83
2018-07-15T17:57:36.130Z,2.57
2018-07-15T18:00:04.411Z,1.70
2018-07-15T18:02:32.764Z,1.83
2018-07-15T18:05:01.099Z,1.93
2018-07-15T18:07:29.290Z,1.90
2018-07-15T18:09:57.725Z,3.20
2018-07-15T18:12:25.984Z,2.80
2018-07-15T18:14:54.285Z,2.60
2018-07-15T18:17:22.574Z,2.93
2018-07-15T18:19:50.912Z,3.70
2018-07-15T18:22:19.183Z,4.80
2018-07-15T18:24:47.425Z,3.33
2018-07-15T18:27:15.711Z,3.10
2018-07-15T18:29:43.941Z,3.20
2018-07-15T18:32:12.213Z,3.43
2018-07-15T18:34:40.461Z,3.80
2018-07-15T18:37:08.697Z,4.07
2018-07-15T18:39:37.030Z,4.17
2018-07-15T18:42:05.306Z,4.10
2018-07-15T18:44:33.661Z,3.90
2018-07-15T18:47:02.179Z,4.13
2018-07-15T18:49:30.432Z,4.57
2018-07-15T18:51:58.710Z,4.10
2018-07-15T18:54:26.740Z,4.20
2018-07-15T18:56:54.989Z,4.77
2018-07-15T18:59:23.237Z,5.10
2018-07-15T19:01:51.552Z,5.00
2018-07-15T19:04:19.932Z,4.90
2018-07-15T19:06:48.217Z,4.93
2018-07-15T19:09:16.513Z,4.97
2018-07-15T19:11:44.769Z,5.27
2018-07-15T19:14:13.029Z,5.40
2018-07-15T19:16:41.445Z,4.77
2018-07-15T19:19:09.757Z,5.33
2018-07-15T19:21:38.017Z,5.63
2018-07-15T19:24:06.953Z,5.00
2018-07-15T19:26:35.279Z,5.10
2018-07-15T19:29:03.601Z,5.53
2018-07-15T19:31:32.096Z,5.30
2018-07-15T19:34:00.542Z,5.17
2018-07-15T19:36:29.956Z,5.17
2018-07-15T19:38:59.367Z,5.07
2018-07-15T19:41:28.847Z,5.27
2018-07-15T19:43:58.277Z,4.70
2018-07-15T19:46:27.658Z,5.60
2018-07-15T19:48:56.968Z,5.57
2018-07-15T19:51:25.704Z,5.20
2018-07-15T19:53:55.283Z,5.23
2018-07-15T19:56:24.504Z,5.13
2018-07-15T19:58:54.061Z,4.17
2018-07-15T20:01:23.484Z,4.17
2018-07-15T20:03:52.863Z,3.70
2018-07-15T20:06:22.534Z,4.00
2018-07-15T20:08:52.520Z,4.33
2018-07-15T20:11:21.977Z,4.20
2018-07-15T20:13:51.409Z,3.90
2018-07-15T20:16:21.160Z,4.13
2018-07-15T20:18:50.642Z,4.07
2018-07-15T20:21:22.905Z,4.10
2018-07-15T20:23:56.432Z,3.97
2018-07-15T20:26:26.841Z,4.23
2018-07-15T20:28:57.196Z,4.65
2018-07-15T20:31:26.496Z,4.53
2018-07-15T20:33:55.868Z,4.30
2018-07-15T20:36:25.491Z,4.33
2018-07-15T20:38:54.744Z,4.33
2018-07-15T20:41:24.043Z,4.60
2018-07-15T20:43:52.975Z,4.50
2018-07-15T20:46:22.462Z,4.73
2018-07-15T20:48:50.796Z,4.30
2018-07-15T20:51:19.145Z,4.57
2018-07-15T20:53:47.413Z,4.67
2018-07-15T20:56:15.781Z,4.20
2018-07-15T20:58:44.034Z,4.53
2018-07-15T21:01:12.325Z,4.20
2018-07-15T21:03:40.605Z,4.30
2018-07-15T21:06:08.903Z,4.97
2018-07-15T21:08:37.776Z,4.40
2018-07-15T21:11:06.042Z,4.50
2018-07-15T21:13:34.645Z,4.50
2018-07-15T21:16:02.909Z,4.40
2018-07-15T21:18:31.157Z,4.10
2018-07-15T21:20:59.437Z,3.93
2018-07-15T21:23:27.704Z,4.17
2018-07-15T21:25:55.965Z,4.70
2018-07-15T21:28:24.253Z,4.80
2018-07-15T21:30:52.553Z,5.50
2018-07-15T21:33:20.845Z,4.55
2018-07-15T21:35:48.897Z,5.00
2018-07-15T21:38:17.238Z,5.40
2018-07-15T21:40:45.505Z,5.30
2018-07-15T21:43:13.821Z,4.53
2018-07-15T21:45:42.077Z,4.50
2018-07-15T21:48:10.337Z,4.77
2018-07-15T21:50:38.613Z,5.50
2018-07-15T21:53:06.904Z,5.47
2018-07-15T21:55:35.161Z,5.43
2018-07-15T21:58:05.174Z,5.13
2018-07-15T22:00:33.460Z,4.90
2018-07-15T22:03:01.805Z,4.60
2018-07-15T22:05:30.054Z,4.40
2018-07-15T22:08:09.565Z,4.57
2018-07-15T22:10:42.168Z,4.27
2018-07-15T22:13:10.402Z,4.57
2018-07-15T22:15:38.729Z,4.90
2018-07-15T22:18:07.037Z,4.70
2018-07-15T22:20:35.122Z,4.53
2018-07-15T22:23:03.402Z,4.00
2018-07-15T22:25:31.941Z,4.50
2018-07-15T22:28:00.510Z,4.23
2018-07-15T22:30:28.765Z,4.37
2018-07-15T22:32:57.281Z,4.17
2018-07-15T22:35:25.544Z,4.10
2018-07-15T22:37:53.826Z,4.37
2018-07-15T22:40:22.290Z,4.43
2018-07-15T22:42:50.556Z,3.97
2018-07-15T22:45:18.820Z,3.93
2018-07-15T22:47:47.116Z,3.60
2018-07-15T22:50:15.365Z,3.80
2018-07-15T22:52:43.629Z,3.50
2018-07-15T22:55:12.231Z,3.67
2018-07-15T22:57:40.493Z,3.80
2018-07-15T23:00:08.990Z,3.87
2018-07-15T23:02:37.476Z,3.60
2018-07-15T23:05:43.282Z,3.37
2018-07-15T23:08:11.890Z,3.10
2018-07-15T23:10:40.674Z,3.53
2018-07-15T23:13:09.841Z,3.80
2018-07-15T23:15:38.533Z,3.40
2018-07-15T23:18:06.858Z,3.53
2018-07-15T23:20:35.518Z,3.73
2018-07-15T23:23:04.713Z,3.50
2018-07-15T23:25:33.276Z,3.33
2018-07-15T23:28:02.128Z,3.33
2018-07-15T23:30:31.309Z,3.30
2018-07-15T23:32:59.940Z,3.60
2018-07-15T23:35:28.207Z,3.00
2018-07-15T23:37:56.519Z,3.43
2018-07-15T23:40:24.897Z,3.20
2018-07-15T23:42:53.673Z,3.50
2018-07-15T23:45:22.533Z,3.20
2018-07-15T23:47:50.776Z,3.17
2018-07-15T23:50:19.064Z,3.60
2018-07-15T23:52:50.232Z,3.00
2018-07-15T23:55:18.494Z,3.00
2018-07-15T23:57:46.841Z,3.03
